Time,TemperatureF,DewpointF,PressureIn,WindDirection,WindDirectionDegrees,WindSpeedMPH,WindSpeedGustMPH,Humidity,HourlyPrecipIn,Conditions,Clouds,dailyrainin,SolarRadiationWatts/m^2,SoftwareType,DateUTC
2013-07-28 00:00:00,62.0,34.0,29.85,NE,56,0.0,0.0,35,0.00,,,0.00,0,Wunderground v.1.15,2013-07-28 07:00:00,
2013-07-28 00:09:00,61.2,34.0,29.85,NE,56,0.0,0.0,36,0.00,,,0.00,0,Wunderground v.1.15,2013-07-28 07:09:00,
2013-07-28 00:14:00,60.8,34.3,29.85,NE,56,0.0,0.0,37,0.00,,,0.00,0,Wunderground v.1.15,2013-07-28 07:14:00,
2013-07-28 00:19:00,60.7,34.3,29.85,NE,56,0.0,0.0,37,0.00,,,0.00,0,Wunderground v.1.15,2013-07-28 07:19:00,
2013-07-28 00:24:00,60.9,33.7,29.86,ENE,59,0.0,0.0,36,0.00,,,0.00,0,Wunderground v.1.15,2013-07-28 07:24:00,
2013-07-28 00:30:00,60.8,33.7,29.86,ENE,59,0.0,0.0,36,0.00,,,0.00,0,Wunderground v.1.15,2013-07-28 07:30:00,
2013-07-28 00:35:00,60.9,33.7,29.86,ENE,59,0.0,0.0,36,0.00,,,0.00,0,Wunderground v.1.15,2013-07-28 07:35:00,
2013-07-28 00:40:00,60.7,33.6,29.86,ENE,59,0.0,0.0,36,0.00,,,0.00,0,Wunderground v.1.15,2013-07-28 07:40:00,
2013-07-28 00:45:00,60.5,33.4,29.86,ENE,59,0.0,0.0,36,0.00,,,0.00,0,Wunderground v.1.15,2013-07-28 07:45:00,
2013-07-28 00:50:00,60.4,34.0,29.86,ENE,59,0.0,0.0,37,0.00,,,0.00,0,Wunderground v.1.15,2013-07-28 07:50:00,
2013-07-28 01:00:00,60.0,33.6,29.86,ENE,59,0.0,0.0,37,0.00,,,0.00,0,Wunderground v.1.15,2013-07-28 08:00:00,
2013-07-28 01:05:00,60.1,33.7,29.86,ENE,59,0.0,0.0,37,0.00,,,0.00,0,Wunderground v.1.15,2013-07-28 08:05:00,
2013-07-28 01:10:00,60.0,33.6,29.86,ENE,59,0.0,0.0,37,0.00,,,0.00,0,Wunderground v.1.15,2013-07-28 08:10:00,
2013-07-28 01:15:00,60.0,33.6,29.86,ENE,59,0.0,0.0,37,0.00,,,0.00,0,Wunderground v.1.15,2013-07-28 08:15:00,
2013-07-28 01:20:00,60.0,32.9,29.86,ENE,59,0.0,0.0,36,0.00,,,0.00,0,Wunderground v.1.15,2013-07-28 08:20:00,
2013-07-28 01:25:00,59.8,32.8,29.86,ENE,59,0.0,0.0,36,0.00,,,0.00,0,Wunderground v.1.15,2013-07-28 08:25:00,
2013-07-28 01:30:00,59.6,33.3,29.86,ENE,59,0.0,0.0,37,0.00,,,0.00,0,Wunderground v.1.15,2013-07-28 08:30:00,
2013-07-28 01:40:00,59.4,33.1,29.86,ENE,59,0.0,0.0,37,0.00,,,0.00,0,Wunderground v.1.15,2013-07-28 08:40:00,
2013-07-28 01:45:00,59.3,33.0,29.86,ENE,59,0.0,0.0,37,0.00,,,0.00,0,Wunderground v.1.15,2013-07-28 08:45:00,
2013-07-28 01:50:00,59.1,32.8,29.86,ENE,59,0.0,0.0,37,0.00,,,0.00,0,Wunderground v.1.15,2013-07-28 08:50:00,
2013-07-28 01:55:00,58.7,32.5,29.86,ENE,59,0.0,0.0,37,0.00,,,0.00,0,Wunderground v.1.15,2013-07-28 08:55:00,
2013-07-28 02:00:00,58.3,32.8,29.86,ENE,59,0.0,0.0,38,0.00,,,0.00,0,Wunderground v.1.15,2013-07-28 09:00:00,
2013-07-28 02:10:00,56.4,33.0,29.86,ENE,59,0.0,0.0,41,0.00,,,0.00,0,Wunderground v.1.15,2013-07-28 09:10:00,
2013-07-28 02:15:00,55.7,32.3,29.86,ENE,59,0.0,0.0,41,0.00,,,0.00,0,Wunderground v.1.15,2013-07-28 09:15:00,
2013-07-28 02:20:00,55.7,32.3,29.86,ENE,59,0.0,0.0,41,0.00,,,0.00,0,Wunderground v.1.15,2013-07-28 09:20:00,
2013-07-28 02:25:00,55.5,32.2,29.86,ENE,59,0.0,0.0,41,0.00,,,0.00,0,Wunderground v.1.15,2013-07-28 09:25:00,
2013-07-28 02:30:00,55.4,32.1,29.86,ENE,59,0.0,0.0,41,0.00,,,0.00,0,Wunderground v.1.15,2013-07-28 09:30:00,
2013-07-28 02:35:00,55.0,32.9,29.86,ENE,59,0.0,0.0,43,0.00,,,0.00,0,Wunderground v.1.15,2013-07-28 09:35:00,
2013-07-28 02:45:00,54.9,33.9,29.86,ENE,59,0.0,0.0,45,0.00,,,0.00,0,Wunderground v.1.15,2013-07-28 09:45:00,
2013-07-28 02:50:00,54.9,34.5,29.86,ENE,59,0.0,0.0,46,0.00,,,0.00,0,Wunderground v.1.15,2013-07-28 09:50:00,
2013-07-28 02:55:00,54.9,34.5,29.86,ENE,59,0.0,0.0,46,0.00,,,0.00,0,Wunderground v.1.15,2013-07-28 09:55:00,
2013-07-28 03:00:00,55.1,34.7,29.86,ENE,59,0.0,0.0,46,0.00,,,0.00,0,Wunderground v.1.15,2013-07-28 10:00:00,
2013-07-28 03:10:00,53.9,34.1,29.86,ENE,72,0.0,0.0,47,0.00,,,0.00,0,Wunderground v.1.15,2013-07-28 10:10:00,
2013-07-28 03:20:00,53.7,35.0,29.86,ENE,73,0.0,0.0,49,0.00,,,0.00,0,Wunderground v.1.15,2013-07-28 10:20:00,
2013-07-28 03:25:00,52.5,33.9,29.86,ENE,73,0.0,0.0,49,0.00,,,0.00,0,Wunderground v.1.15,2013-07-28 10:25:00,
2013-07-28 03:30:00,51.9,34.3,29.85,ENE,73,0.0,0.0,51,0.00,,,0.00,0,Wunderground v.1.15,2013-07-28 10:30:00,
2013-07-28 03:35:00,52.0,34.4,29.86,ENE,73,0.0,0.0,51,0.00,,,0.00,0,Wunderground v.1.15,2013-07-28 10:35:00,
2013-07-28 03:45:00,52.5,35.4,29.86,ENE,73,0.0,0.0,52,0.00,,,0.00,0,Wunderground v.1.15,2013-07-28 10:45:00,
2013-07-28 03:50:00,52.6,35.5,29.86,ENE,73,0.0,0.0,52,0.00,,,0.00,0,Wunderground v.1.15,2013-07-28 10:50:00,
2013-07-28 03:55:00,52.3,35.2,29.86,ENE,73,0.0,0.0,52,0.00,,,0.00,0,Wunderground v.1.15,2013-07-28 10:55:00,
2013-07-28 04:00:00,52.1,35.0,29.86,ENE,73,0.0,0.0,52,0.00,,,0.00,0,Wunderground v.1.15,2013-07-28 11:00:00,
2013-07-28 04:10:00,51.7,35.6,29.86,ENE,73,0.0,0.0,54,0.00,,,0.00,0,Wunderground v.1.15,2013-07-28 11:10:00,
2013-07-28 04:15:00,51.5,35.4,29.86,ENE,73,0.0,0.0,54,0.00,,,0.00,0,Wunderground v.1.15,2013-07-28 11:15:00,
2013-07-28 04:20:00,51.2,35.1,29.86,ENE,73,0.0,0.0,54,0.00,,,0.00,0,Wunderground v.1.15,2013-07-28 11:20:00,
2013-07-28 04:25:00,51.1,35.9,29.86,ENE,73,0.0,0.0,56,0.00,,,0.00,0,Wunderground v.1.15,2013-07-28 11:25:00,
2013-07-28 04:30:00,51.3,36.1,29.86,ENE,73,0.0,0.0,56,0.00,,,0.00,0,Wunderground v.1.15,2013-07-28 11:30:00,
2013-07-28 04:35:00,51.8,36.1,29.86,ENE,73,0.0,0.0,55,0.00,,,0.00,0,Wunderground v.1.15,2013-07-28 11:35:00,
2013-07-28 04:40:00,51.5,35.9,29.86,ENE,73,0.0,0.0,55,0.00,,,0.00,0,Wunderground v.1.15,2013-07-28 11:40:00,
2013-07-28 04:50:00,51.0,35.8,29.86,ENE,73,0.0,0.0,56,0.00,,,0.00,0,Wunderground v.1.15,2013-07-28 11:50:00,
2013-07-28 04:55:00,51.0,35.8,29.86,ENE,73,0.0,0.0,56,0.00,,,0.00,0,Wunderground v.1.15,2013-07-28 11:55:00,
2013-07-28 05:00:00,50.9,35.7,29.86,ENE,73,0.0,0.0,56,0.00,,,0.00,0,Wunderground v.1.15,2013-07-28 12:00:00,
2013-07-28 05:10:00,50.6,36.4,29.86,ENE,73,0.0,0.0,58,0.00,,,0.00,0,Wunderground v.1.15,2013-07-28 12:10:00,
2013-07-28 05:15:00,50.0,36.2,29.86,ENE,73,0.0,0.0,59,0.00,,,0.00,0,Wunderground v.1.15,2013-07-28 12:15:00,
2013-07-28 05:25:00,49.4,36.9,29.86,ENE,74,0.0,0.0,62,0.00,,,0.00,0,Wunderground v.1.15,2013-07-28 12:25:00,
2013-07-28 05:30:00,49.9,37.4,29.86,ENE,74,0.0,0.0,62,0.00,,,0.00,0,Wunderground v.1.15,2013-07-28 12:30:00,
2013-07-28 05:35:00,49.9,36.6,29.86,ENE,74,0.0,0.0,60,0.00,,,0.00,0,Wunderground v.1.15,2013-07-28 12:35:00,
2013-07-28 05:40:00,49.3,36.4,29.86,ENE,74,0.0,0.0,61,0.00,,,0.00,0,Wunderground v.1.15,2013-07-28 12:40:00,
2013-07-28 05:45:00,48.9,36.4,29.86,ENE,74,0.0,0.0,62,0.00,,,0.00,0,Wunderground v.1.15,2013-07-28 12:45:00,
2013-07-28 05:50:00,49.1,36.6,29.87,ENE,74,0.0,0.0,62,0.00,,,0.00,5,Wunderground v.1.15,2013-07-28 12:50:00,
2013-07-28 06:00:00,48.7,36.3,29.86,ENE,74,0.0,0.0,62,0.00,,,0.00,9,Wunderground v.1.15,2013-07-28 13:00:00,
2013-07-28 06:10:00,48.6,36.6,29.87,ENE,74,0.0,0.0,63,0.00,,,0.00,12,Wunderground v.1.15,2013-07-28 13:10:00,
2013-07-28 06:15:00,48.8,36.8,29.87,ENE,74,0.0,0.0,63,0.00,,,0.00,16,Wunderground v.1.15,2013-07-28 13:15:00,
2013-07-28 06:20:00,48.9,36.4,29.87,ENE,74,0.0,0.0,62,0.00,,,0.00,23,Wunderground v.1.15,2013-07-28 13:20:00,
2013-07-28 06:30:00,49.3,36.8,29.87,ENE,74,0.0,0.0,62,0.00,,,0.00,42,Wunderground v.1.15,2013-07-28 13:30:00,
2013-07-28 06:35:00,49.6,37.1,29.87,ENE,74,0.0,0.0,62,0.00,,,0.00,54,Wunderground v.1.15,2013-07-28 13:35:00,
2013-07-28 06:40:00,50.1,37.2,29.87,ENE,74,0.0,0.0,61,0.00,,,0.00,67,Wunderground v.1.15,2013-07-28 13:40:00,
2013-07-28 06:45:00,50.5,37.1,29.87,ENE,78,0.0,0.0,60,0.00,,,0.00,79,Wunderground v.1.15,2013-07-28 13:45:00,
2013-07-28 06:50:00,51.2,37.4,29.87,East,88,0.0,0.0,59,0.00,,,0.00,93,Wunderground v.1.15,2013-07-28 13:50:00,
2013-07-28 06:55:00,51.9,37.6,29.87,East,90,0.0,0.0,58,0.00,,,0.00,111,Wunderground v.1.15,2013-07-28 13:55:00,
2013-07-28 07:00:00,52.6,37.8,29.88,East,91,0.0,0.0,57,0.00,,,0.00,127,Wunderground v.1.15,2013-07-28 14:00:00,
2013-07-28 07:10:00,53.7,37.9,29.87,East,93,0.0,0.0,55,0.00,,,0.00,163,Wunderground v.1.15,2013-07-28 14:10:00,
2013-07-28 07:15:00,54.2,37.4,29.88,East,94,0.0,0.0,53,0.00,,,0.00,179,Wunderground v.1.15,2013-07-28 14:15:00,
2013-07-28 07:20:00,54.7,37.4,29.88,East,97,0.0,0.0,52,0.00,,,0.00,199,Wunderground v.1.15,2013-07-28 14:20:00,
2013-07-28 07:25:00,55.3,37.5,29.87,East,101,0.0,0.0,51,0.00,,,0.00,218,Wunderground v.1.15,2013-07-28 14:25:00,
2013-07-28 07:35:00,56.3,37.9,29.88,ESE,116,0.0,0.0,50,0.00,,,0.00,251,Wunderground v.1.15,2013-07-28 14:35:00,
2013-07-28 07:45:00,57.4,37.3,29.88,ESE,117,0.0,0.0,47,0.00,,,0.00,283,Wunderground v.1.15,2013-07-28 14:45:00,
2013-07-28 07:50:00,57.9,37.8,29.88,ESE,118,0.0,0.0,47,0.00,,,0.00,295,Wunderground v.1.15,2013-07-28 14:50:00,
2013-07-28 07:55:00,58.4,37.1,29.87,ESE,119,0.0,0.0,45,0.00,,,0.00,311,Wunderground v.1.15,2013-07-28 14:55:00,
2013-07-28 08:00:00,58.7,37.4,29.87,ESE,121,0.0,0.0,45,0.00,,,0.00,325,Wunderground v.1.15,2013-07-28 15:00:00,
2013-07-28 08:10:00,60.1,37.5,29.88,ESE,123,0.0,0.0,43,0.00,,,0.00,355,Wunderground v.1.15,2013-07-28 15:10:00,
2013-07-28 08:15:00,59.6,36.5,29.87,ESE,123,0.0,0.0,42,0.00,,,0.00,373,Wunderground v.1.15,2013-07-28 15:15:00,
2013-07-28 08:20:00,60.1,37.5,29.87,SE,125,0.0,0.0,43,0.00,,,0.00,385,Wunderground v.1.15,2013-07-28 15:20:00,
2013-07-28 08:25:00,61.2,37.3,29.87,SE,125,0.0,0.0,41,0.00,,,0.00,399,Wunderground v.1.15,2013-07-28 15:25:00,
2013-07-28 08:30:00,61.7,37.1,29.87,SE,125,0.0,0.0,40,0.00,,,0.00,411,Wunderground v.1.15,2013-07-28 15:30:00,
2013-07-28 08:40:00,62.7,37.4,29.87,ESE,122,0.0,0.0,39,0.00,,,0.00,443,Wunderground v.1.15,2013-07-28 15:40:00,
2013-07-28 08:45:00,64.0,37.9,29.87,ESE,122,0.0,0.0,38,0.00,,,0.00,457,Wunderground v.1.15,2013-07-28 15:45:00,
2013-07-28 08:50:00,64.5,36.9,29.87,ESE,122,0.0,0.0,36,0.00,,,0.00,471,Wunderground v.1.15,2013-07-28 15:50:00,
2013-07-28 08:55:00,64.5,37.6,29.87,ESE,110,0.0,0.0,37,0.00,,,0.00,485,Wunderground v.1.15,2013-07-28 15:55:00,
2013-07-28 09:00:00,65.4,37.7,29.87,ESE,117,0.0,0.0,36,0.00,,,0.00,503,Wunderground v.1.15,2013-07-28 16:00:00,
2013-07-28 09:10:00,66.3,37.8,29.87,ESE,119,0.0,0.0,35,0.00,,,0.00,526,Wunderground v.1.15,2013-07-28 16:10:00,
2013-07-28 09:15:00,65.9,37.5,29.86,ESE,121,0.0,0.0,35,0.00,,,0.00,541,Wunderground v.1.15,2013-07-28 16:15:00,
2013-07-28 09:25:00,68.3,37.3,29.86,ESE,122,0.0,0.0,32,0.00,,,0.00,568,Wunderground v.1.15,2013-07-28 16:25:00,
2013-07-28 09:30:00,67.1,37.8,29.86,SSE,156,0.0,0.0,34,0.00,,,0.00,582,Wunderground v.1.15,2013-07-28 16:30:00,
2013-07-28 09:35:00,67.7,36.8,29.86,SE,146,0.0,0.0,32,0.00,,,0.00,596,Wunderground v.1.15,2013-07-28 16:35:00,
2013-07-28 09:40:00,67.6,36.7,29.86,SSE,161,0.0,0.0,32,0.00,,,0.00,606,Wunderground v.1.15,2013-07-28 16:40:00,
2013-07-28 09:45:00,69.1,37.2,29.86,SSE,162,0.0,0.0,31,0.00,,,0.00,621,Wunderground v.1.15,2013-07-28 16:45:00,
2013-07-28 09:50:00,68.6,35.9,29.85,SSE,163,0.0,0.0,30,0.00,,,0.00,633,Wunderground v.1.15,2013-07-28 16:50:00,
2013-07-28 09:55:00,69.9,36.2,29.85,SSE,158,0.0,0.0,29,0.00,,,0.00,645,Wunderground v.1.15,2013-07-28 16:55:00,
2013-07-28 10:00:00,71.1,36.3,29.85,SSE,157,0.0,0.0,28,0.00,,,0.00,659,Wunderground v.1.15,2013-07-28 17:00:00,
2013-07-28 10:10:00,70.4,34.8,29.85,South,170,0.0,0.0,27,0.00,,,0.00,680,Wunderground v.1.15,2013-07-28 17:10:00,
2013-07-28 10:15:00,70.4,32.9,29.85,South,187,1.0,1.0,25,0.00,,,0.00,694,Wunderground v.1.15,2013-07-28 17:15:00,
2013-07-28 10:20:00,71.6,33.9,29.85,South,187,1.0,1.0,25,0.00,,,0.00,705,Wunderground v.1.15,2013-07-28 17:20:00,
2013-07-28 10:25:00,72.1,34.3,29.85,South,187,0.0,1.0,25,0.00,,,0.00,715,Wunderground v.1.15,2013-07-28 17:25:00,
2013-07-28 10:30:00,73.9,32.6,29.85,ENE,68,0.0,0.0,22,0.00,,,0.00,726,Wunderground v.1.15,2013-07-28 17:30:00,
2013-07-28 10:35:00,73.9,32.6,29.85,ENE,72,0.0,0.0,22,0.00,,,0.00,738,Wunderground v.1.15,2013-07-28 17:35:00,
2013-07-28 10:40:00,74.0,31.6,29.85,ENE,63,0.0,0.0,21,0.00,,,0.00,751,Wunderground v.1.15,2013-07-28 17:40:00,
2013-07-28 10:50:00,76.6,32.5,29.84,NW,313,0.0,0.0,20,0.00,,,0.00,768,Wunderground v.1.15,2013-07-28 17:50:00,
2013-07-28 10:55:00,76.1,32.1,29.84,ENE,60,0.0,0.0,20,0.00,,,0.00,779,Wunderground v.1.15,2013-07-28 17:55:00,
2013-07-28 11:00:00,75.7,31.8,29.84,NE,45,0.0,0.0,20,0.00,,,0.00,791,Wunderground v.1.15,2013-07-28 18:00:00,
2013-07-28 11:10:00,74.3,31.8,29.84,NNE,17,0.0,0.0,21,0.00,,,0.00,803,Wunderground v.1.15,2013-07-28 18:10:00,
2013-07-28 11:20:00,75.6,31.7,29.84,North,11,0.0,0.0,20,0.00,,,0.00,821,Wunderground v.1.15,2013-07-28 18:20:00,
2013-07-28 11:25:00,75.4,31.5,29.84,NNE,23,0.0,0.0,20,0.00,,,0.00,830,Wunderground v.1.15,2013-07-28 18:25:00,
2013-07-28 11:30:00,75.5,32.8,29.84,NE,46,0.0,0.0,21,0.00,,,0.00,838,Wunderground v.1.15,2013-07-28 18:30:00,
2013-07-28 11:35:00,75.3,32.6,29.84,NNW,343,2.0,2.0,21,0.00,,,0.00,846,Wunderground v.1.15,2013-07-28 18:35:00,
2013-07-28 11:40:00,74.9,32.3,29.83,NNE,17,3.0,6.0,21,0.00,,,0.00,853,Wunderground v.1.15,2013-07-28 18:40:00,
2013-07-28 11:45:00,75.5,32.8,29.84,NNW,344,3.0,6.0,21,0.00,,,0.00,856,Wunderground v.1.15,2013-07-28 18:45:00,
2013-07-28 11:55:00,77.5,32.0,29.83,NW,322,0.0,2.0,19,0.00,,,0.00,870,Wunderground v.1.15,2013-07-28 18:55:00,
2013-07-28 12:00:00,76.7,31.3,29.83,North,350,3.0,3.0,19,0.00,,,0.00,875,Wunderground v.1.15,2013-07-28 19:00:00,
2013-07-28 12:10:00,78.3,31.3,29.83,NNW,342,1.0,1.0,18,0.00,,,0.00,888,Wunderground v.1.15,2013-07-28 19:10:00,
2013-07-28 12:15:00,77.9,32.3,29.83,North,5,3.0,3.0,19,0.00,,,0.00,891,Wunderground v.1.15,2013-07-28 19:15:00,
2013-07-28 12:25:00,78.6,32.9,29.83,NNW,342,3.0,8.0,19,0.00,,,0.00,898,Wunderground v.1.15,2013-07-28 19:25:00,
2013-07-28 12:30:00,77.9,33.6,29.83,North,355,2.0,2.0,20,0.00,,,0.00,902,Wunderground v.1.15,2013-07-28 19:30:00,
2013-07-28 12:35:00,78.4,31.4,29.83,NNE,15,3.0,3.0,18,0.00,,,0.00,909,Wunderground v.1.15,2013-07-28 19:35:00,
2013-07-28 12:40:00,78.9,31.8,29.82,West,259,2.0,4.0,18,0.00,,,0.00,911,Wunderground v.1.15,2013-07-28 19:40:00,
2013-07-28 12:45:00,80.0,31.2,29.82,North,355,3.0,8.0,17,0.00,,,0.00,911,Wunderground v.1.15,2013-07-28 19:45:00,
2013-07-28 12:50:00,79.5,32.3,29.82,NNW,338,5.0,5.0,18,0.00,,,0.00,914,Wunderground v.1.15,2013-07-28 19:50:00,
2013-07-28 12:55:00,79.4,32.2,29.82,NE,43,4.0,5.0,18,0.00,,,0.00,916,Wunderground v.1.15,2013-07-28 19:55:00,
2013-07-28 13:05:00,80.3,32.9,29.82,NE,53,1.0,5.0,18,0.00,,,0.00,918,Wunderground v.1.15,2013-07-28 20:05:00,
2013-07-28 13:10:00,79.8,32.5,29.81,NE,51,1.0,1.0,18,0.00,,,0.00,919,Wunderground v.1.15,2013-07-28 20:10:00,
2013-07-28 13:20:00,79.8,35.1,29.82,NNE,23,2.0,2.0,20,0.00,,,0.00,919,Wunderground v.1.15,2013-07-28 20:20:00,
2013-07-28 13:25:00,79.9,33.9,29.82,NNE,26,3.0,3.0,19,0.00,,,0.00,919,Wunderground v.1.15,2013-07-28 20:25:00,
2013-07-28 13:35:00,79.6,33.7,29.81,NNE,30,1.0,3.0,19,0.00,,,0.00,918,Wunderground v.1.15,2013-07-28 20:35:00,
2013-07-28 13:40:00,79.9,33.9,29.81,NE,40,2.0,8.0,19,0.00,,,0.00,916,Wunderground v.1.15,2013-07-28 20:40:00,
2013-07-28 13:45:00,80.5,34.4,29.81,NE,47,3.0,8.0,19,0.00,,,0.00,912,Wunderground v.1.15,2013-07-28 20:45:00,
2013-07-28 13:50:00,81.1,33.6,29.81,NNE,24,2.0,6.0,18,0.00,,,0.00,911,Wunderground v.1.15,2013-07-28 20:50:00,
2013-07-28 13:55:00,81.4,32.4,29.81,North,355,1.0,6.0,17,0.00,,,0.00,909,Wunderground v.1.15,2013-07-28 20:55:00,
2013-07-28 14:00:00,81.0,33.5,29.80,NNE,26,3.0,11.0,18,0.00,,,0.00,905,Wunderground v.1.15,2013-07-28 21:00:00,
2013-07-28 14:10:00,81.3,32.3,29.80,NE,48,4.0,4.0,17,0.00,,,0.00,900,Wunderground v.1.15,2013-07-28 21:10:00,
2013-07-28 14:15:00,82.1,34.4,29.80,NE,39,3.0,7.0,18,0.00,,,0.00,895,Wunderground v.1.15,2013-07-28 21:15:00,
2013-07-28 14:20:00,81.6,32.5,29.80,NE,51,5.0,5.0,17,0.00,,,0.00,893,Wunderground v.1.15,2013-07-28 21:20:00,
2013-07-28 14:25:00,81.9,35.6,29.80,ENE,74,4.0,5.0,19,0.00,,,0.00,888,Wunderground v.1.15,2013-07-28 21:25:00,
2013-07-28 14:30:00,81.6,35.3,29.80,North,11,3.0,3.0,19,0.00,,,0.00,882,Wunderground v.1.15,2013-07-28 21:30:00,
2013-07-28 14:35:00,82.1,35.7,29.80,NE,36,3.0,7.0,19,0.00,,,0.00,877,Wunderground v.1.15,2013-07-28 21:35:00,
2013-07-28 14:40:00,82.0,35.7,29.80,NNE,19,3.0,3.0,19,0.00,,,0.00,874,Wunderground v.1.15,2013-07-28 21:40:00,
2013-07-28 14:45:00,82.5,36.1,29.80,NE,36,5.0,5.0,19,0.00,,,0.00,867,Wunderground v.1.15,2013-07-28 21:45:00,
2013-07-28 14:50:00,82.3,35.9,29.79,ENE,58,4.0,4.0,19,0.00,,,0.00,861,Wunderground v.1.15,2013-07-28 21:50:00,
2013-07-28 14:55:00,82.2,37.1,29.79,ENE,57,3.0,4.0,20,0.00,,,0.00,853,Wunderground v.1.15,2013-07-28 21:55:00,
2013-07-28 15:00:00,82.7,36.2,29.79,NNW,344,3.0,3.0,19,0.00,,,0.00,847,Wunderground v.1.15,2013-07-28 22:00:00,
2013-07-28 15:10:00,82.6,36.1,29.79,NE,36,3.0,3.0,19,0.00,,,0.00,831,Wunderground v.1.15,2013-07-28 22:10:00,
2013-07-28 15:15:00,82.8,37.6,29.79,NNE,17,4.0,7.0,20,0.00,,,0.00,823,Wunderground v.1.15,2013-07-28 22:15:00,
2013-07-28 15:20:00,83.1,36.6,29.79,NNW,343,5.0,5.0,19,0.00,,,0.00,817,Wunderground v.1.15,2013-07-28 22:20:00,
2013-07-28 15:25:00,83.5,36.9,29.79,NNE,22,4.0,5.0,19,0.00,,,0.00,812,Wunderground v.1.15,2013-07-28 22:25:00,
2013-07-28 15:30:00,83.0,37.8,29.79,NNE,13,2.0,2.0,20,0.00,,,0.00,800,Wunderground v.1.15,2013-07-28 22:30:00,
2013-07-28 15:40:00,82.7,37.5,29.79,North,360,6.0,6.0,20,0.00,,,0.00,780,Wunderground v.1.15,2013-07-28 22:40:00,
2013-07-28 15:45:00,82.3,37.2,29.79,NNE,19,7.0,8.0,20,0.00,,,0.00,773,Wunderground v.1.15,2013-07-28 22:45:00,
2013-07-28 15:50:00,82.1,37.0,29.78,NE,41,8.0,11.0,20,0.00,,,0.00,763,Wunderground v.1.15,2013-07-28 22:50:00,
2013-07-28 15:55:00,82.0,37.0,29.78,North,11,9.0,11.0,20,0.00,,,0.00,754,Wunderground v.1.15,2013-07-28 22:55:00,
2013-07-28 16:00:00,82.6,37.5,29.78,NNE,22,10.0,10.0,20,0.00,,,0.00,747,Wunderground v.1.15,2013-07-28 23:00:00,
2013-07-28 16:10:00,82.3,37.2,29.78,NNE,17,9.0,10.0,20,0.00,,,0.00,724,Wunderground v.1.15,2013-07-28 23:10:00,
2013-07-28 16:15:00,82.3,37.2,29.78,NNE,29,9.0,10.0,20,0.00,,,0.00,714,Wunderground v.1.15,2013-07-28 23:15:00,
2013-07-28 16:20:00,82.3,37.2,29.78,North,11,8.0,8.0,20,0.00,,,0.00,701,Wunderground v.1.15,2013-07-28 23:20:00,
2013-07-28 16:25:00,82.1,38.3,29.78,NE,43,8.0,11.0,21,0.00,,,0.00,691,Wunderground v.1.15,2013-07-28 23:25:00,
2013-07-28 16:30:00,82.2,39.6,29.77,NE,36,8.0,10.0,22,0.00,,,0.00,679,Wunderground v.1.15,2013-07-28 23:30:00,
2013-07-28 16:35:00,81.8,39.2,29.78,NE,45,9.0,10.0,22,0.00,,,0.00,668,Wunderground v.1.15,2013-07-28 23:35:00,
2013-07-28 16:45:00,82.0,39.4,29.77,NNE,24,8.0,10.0,22,0.00,,,0.00,642,Wunderground v.1.15,2013-07-28 23:45:00,
2013-07-28 16:50:00,82.0,39.4,29.77,ENE,59,9.0,13.0,22,0.00,,,0.00,626,Wunderground v.1.15,2013-07-28 23:50:00,
2013-07-28 16:55:00,82.1,39.5,29.77,NNE,16,9.0,13.0,22,0.00,,,0.00,615,Wunderground v.1.15,2013-07-28 23:55:00,
2013-07-28 17:00:00,82.0,39.4,29.77,NE,44,10.0,10.0,22,0.00,,,0.00,605,Wunderground v.1.15,2013-07-29 00:00:00,
2013-07-28 17:10:00,82.0,39.4,29.77,NNE,27,8.0,8.0,22,0.00,,,0.00,575,Wunderground v.1.15,2013-07-29 00:10:00,
2013-07-28 17:20:00,82.2,40.7,29.77,NE,36,8.0,8.0,23,0.00,,,0.00,548,Wunderground v.1.15,2013-07-29 00:20:00,
2013-07-28 17:25:00,82.4,39.7,29.77,NNE,30,7.0,8.0,22,0.00,,,0.00,536,Wunderground v.1.15,2013-07-29 00:25:00,
2013-07-28 17:30:00,82.0,40.5,29.77,NNE,28,6.0,6.0,23,0.00,,,0.00,522,Wunderground v.1.15,2013-07-29 00:30:00,
2013-07-28 17:35:00,82.2,39.6,29.77,NNE,28,4.0,6.0,22,0.00,,,0.00,510,Wunderground v.1.15,2013-07-29 00:35:00,
2013-07-28 17:40:00,81.9,39.3,29.77,NE,45,4.0,8.0,22,0.00,,,0.00,494,Wunderground v.1.15,2013-07-29 00:40:00,
2013-07-28 17:50:00,81.6,40.2,29.77,North,349,6.0,8.0,23,0.00,,,0.00,462,Wunderground v.1.15,2013-07-29 00:50:00,
2013-07-28 17:55:00,81.5,40.1,29.77,NNE,14,8.0,12.0,23,0.00,,,0.00,450,Wunderground v.1.15,2013-07-29 00:55:00,
2013-07-28 18:00:00,81.4,40.0,29.77,NNE,30,9.0,12.0,23,0.00,,,0.00,436,Wunderground v.1.15,2013-07-29 01:00:00,
2013-07-28 18:10:00,81.4,40.0,29.77,North,355,7.0,17.0,23,0.00,,,0.00,408,Wunderground v.1.15,2013-07-29 01:10:00,
2013-07-28 18:15:00,81.3,39.9,29.76,NNE,19,7.0,17.0,23,0.00,,,0.00,394,Wunderground v.1.15,2013-07-29 01:15:00,
2013-07-28 18:25:00,80.3,40.2,29.77,NNE,28,11.0,11.0,24,0.00,,,0.00,364,Wunderground v.1.15,2013-07-29 01:25:00,
2013-07-28 18:35:00,79.8,40.8,29.77,NNE,24,9.0,13.0,25,0.00,,,0.00,332,Wunderground v.1.15,2013-07-29 01:35:00,
2013-07-28 18:40:00,79.7,41.8,29.77,NNE,13,6.0,7.0,26,0.00,,,0.00,320,Wunderground v.1.15,2013-07-29 01:40:00,
2013-07-28 18:45:00,79.2,41.3,29.77,NNE,13,7.0,8.0,26,0.00,,,0.00,304,Wunderground v.1.15,2013-07-29 01:45:00,
2013-07-28 18:50:00,79.1,42.2,29.77,North,360,7.0,8.0,27,0.00,,,0.00,290,Wunderground v.1.15,2013-07-29 01:50:00,
2013-07-28 19:00:00,79.1,42.2,29.77,NNE,29,5.0,5.0,27,0.00,,,0.00,258,Wunderground v.1.15,2013-07-29 02:00:00,
2013-07-28 19:05:00,78.9,42.1,29.78,NNE,15,4.0,5.0,27,0.00,,,0.00,243,Wunderground v.1.15,2013-07-29 02:05:00,
2013-07-28 19:15:00,78.3,42.5,29.78,NNE,15,4.0,5.0,28,0.00,,,0.00,213,Wunderground v.1.15,2013-07-29 02:15:00,
2013-07-28 19:20:00,77.9,43.1,29.78,NNE,28,4.0,4.0,29,0.00,,,0.00,193,Wunderground v.1.15,2013-07-29 02:20:00,
2013-07-28 19:25:00,77.5,42.7,29.78,North,349,4.0,9.0,29,0.00,,,0.00,174,Wunderground v.1.15,2013-07-29 02:25:00,
2013-07-28 19:30:00,77.1,43.3,29.78,North,10,5.0,5.0,30,0.00,,,0.00,156,Wunderground v.1.15,2013-07-29 02:30:00,
2013-07-28 19:40:00,76.5,43.6,29.78,NNE,29,3.0,3.0,31,0.00,,,0.00,120,Wunderground v.1.15,2013-07-29 02:40:00,
2013-07-28 19:50:00,75.8,43.8,29.78,North,360,3.0,3.0,32,0.00,,,0.00,90,Wunderground v.1.15,2013-07-29 02:50:00,
2013-07-28 19:55:00,75.5,43.6,29.79,NNE,29,1.0,3.0,32,0.00,,,0.00,74,Wunderground v.1.15,2013-07-29 02:55:00,
2013-07-28 20:00:00,75.1,44.0,29.79,North,9,1.0,1.0,33,0.00,,,0.00,58,Wunderground v.1.15,2013-07-29 03:00:00,
2013-07-28 20:10:00,74.2,44.0,29.79,NNE,32,4.0,4.0,34,0.00,,,0.00,37,Wunderground v.1.15,2013-07-29 03:10:00,
2013-07-28 20:15:00,73.7,44.3,29.79,North,5,3.0,4.0,35,0.00,,,0.00,26,Wunderground v.1.15,2013-07-29 03:15:00,
2013-07-28 20:20:00,73.2,44.6,29.79,North,350,1.0,1.0,36,0.00,,,0.00,18,Wunderground v.1.15,2013-07-29 03:20:00,
2013-07-28 20:30:00,72.1,44.4,29.79,NNE,14,1.0,1.0,37,0.00,,,0.00,7,Wunderground v.1.15,2013-07-29 03:30:00,
2013-07-28 20:35:00,71.7,44.7,29.79,North,10,0.0,1.0,38,0.00,,,0.00,5,Wunderground v.1.15,2013-07-29 03:35:00,
2013-07-28 20:40:00,71.4,44.5,29.79,North,5,1.0,1.0,38,0.00,,,0.00,0,Wunderground v.1.15,2013-07-29 03:40:00,
2013-07-28 20:45:00,71.1,44.2,29.79,NNE,19,1.0,1.0,38,0.00,,,0.00,0,Wunderground v.1.15,2013-07-29 03:45:00,
2013-07-28 20:55:00,70.5,44.3,29.80,NNE,19,1.0,1.0,39,0.00,,,0.00,0,Wunderground v.1.15,2013-07-29 03:55:00,
2013-07-28 21:00:00,70.3,44.2,29.80,NE,34,1.0,1.0,39,0.00,,,0.00,0,Wunderground v.1.15,2013-07-29 04:00:00,
2013-07-28 21:05:00,70.1,44.6,29.80,NNE,25,1.0,1.0,40,0.00,,,0.00,0,Wunderground v.1.15,2013-07-29 04:05:00,
2013-07-28 21:10:00,69.8,44.4,29.80,NNE,28,1.0,1.0,40,0.00,,,0.00,0,Wunderground v.1.15,2013-07-29 04:10:00,
2013-07-28 21:15:00,69.6,44.8,29.81,NNE,31,0.0,1.0,41,0.00,,,0.00,0,Wunderground v.1.15,2013-07-29 04:15:00,
2013-07-28 21:20:00,69.4,44.7,29.81,NNE,32,0.0,0.0,41,0.00,,,0.00,0,Wunderground v.1.15,2013-07-29 04:20:00,
2013-07-28 21:25:00,69.3,44.6,29.81,NE,46,0.0,0.0,41,0.00,,,0.00,0,Wunderground v.1.15,2013-07-29 04:25:00,
2013-07-28 21:30:00,69.2,45.1,29.81,NE,36,1.0,1.0,42,0.00,,,0.00,0,Wunderground v.1.15,2013-07-29 04:30:00,
2013-07-28 21:35:00,69.1,45.0,29.81,NE,42,1.0,1.0,42,0.00,,,0.00,0,Wunderground v.1.15,2013-07-29 04:35:00,
2013-07-28 21:40:00,68.9,44.9,29.81,NNE,17,1.0,1.0,42,0.00,,,0.00,0,Wunderground v.1.15,2013-07-29 04:40:00,
2013-07-28 21:45:00,68.6,43.9,29.81,NNE,22,0.0,1.0,41,0.00,,,0.00,0,Wunderground v.1.15,2013-07-29 04:45:00,
2013-07-28 21:50:00,67.9,44.0,29.81,NNE,30,0.0,0.0,42,0.00,,,0.00,0,Wunderground v.1.15,2013-07-29 04:50:00,
2013-07-28 21:55:00,67.4,43.5,29.81,ENE,69,0.0,0.0,42,0.00,,,0.00,0,Wunderground v.1.15,2013-07-29 04:55:00,
2013-07-28 22:00:00,66.9,42.4,29.82,NE,48,0.0,0.0,41,0.00,,,0.00,0,Wunderground v.1.15,2013-07-29 05:00:00,
2013-07-28 22:10:00,66.5,42.1,29.82,NE,54,0.0,0.0,41,0.00,,,0.00,0,Wunderground v.1.15,2013-07-29 05:10:00,
2013-07-28 22:15:00,66.2,42.4,29.82,NE,53,0.0,0.0,42,0.00,,,0.00,0,Wunderground v.1.15,2013-07-29 05:15:00,
2013-07-28 22:20:00,66.1,42.9,29.82,ENE,61,0.0,0.0,43,0.00,,,0.00,0,Wunderground v.1.15,2013-07-29 05:20:00,
2013-07-28 22:30:00,64.9,42.5,29.82,NE,46,0.0,0.0,44,0.00,,,0.00,0,Wunderground v.1.15,2013-07-29 05:30:00,
2013-07-28 22:35:00,64.5,42.7,29.82,NE,46,0.0,0.0,45,0.00,,,0.00,0,Wunderground v.1.15,2013-07-29 05:35:00,
2013-07-28 22:40:00,64.1,42.9,29.81,NE,46,0.0,0.0,46,0.00,,,0.00,0,Wunderground v.1.15,2013-07-29 05:40:00,
2013-07-28 22:45:00,64.0,42.8,29.81,NE,46,0.0,0.0,46,0.00,,,0.00,0,Wunderground v.1.15,2013-07-29 05:45:00,
2013-07-28 22:50:00,63.6,43.0,29.81,East,86,0.0,0.0,47,0.00,,,0.00,0,Wunderground v.1.15,2013-07-29 05:50:00,
2013-07-28 23:00:00,63.1,43.1,29.81,East,86,0.0,0.0,48,0.00,,,0.00,0,Wunderground v.1.15,2013-07-29 06:00:00,
2013-07-28 23:10:00,62.6,42.6,29.82,East,86,0.0,0.0,48,0.00,,,0.00,0,Wunderground v.1.15,2013-07-29 06:10:00,
2013-07-28 23:15:00,61.8,42.4,29.82,East,86,0.0,0.0,49,0.00,,,0.00,0,Wunderground v.1.15,2013-07-29 06:15:00,
2013-07-28 23:20:00,61.4,42.6,29.82,East,86,0.0,0.0,50,0.00,,,0.00,0,Wunderground v.1.15,2013-07-29 06:20:00,
2013-07-28 23:25:00,61.3,42.5,29.82,East,86,0.0,0.0,50,0.00,,,0.00,0,Wunderground v.1.15,2013-07-29 06:25:00,
2013-07-28 23:35:00,60.5,42.8,29.82,East,86,0.0,0.0,52,0.00,,,0.00,0,Wunderground v.1.15,2013-07-29 06:35:00,
2013-07-28 23:40:00,60.7,43.0,29.82,East,86,0.0,0.0,52,0.00,,,0.00,0,Wunderground v.1.15,2013-07-29 06:40:00,
2013-07-28 23:45:00,60.5,42.3,29.82,East,86,0.0,0.0,51,0.00,,,0.00,0,Wunderground v.1.15,2013-07-29 06:45:00,
2013-07-28 23:50:00,60.0,42.3,29.82,East,86,0.0,0.0,52,0.00,,,0.00,0,Wunderground v.1.15,2013-07-29 06:50:00,
2013-07-28 23:55:00,59.1,42.0,29.82,East,86,0.0,0.0,53,0.00,,,0.00,0,Wunderground v.1.15,2013-07-29 06:55:00,